sensor_id;sensor_type;location;lat;lon;timestamp;P1;durP1;ratioP1;P2;durP2;ratioP2
19406;SDS011;9839;53.364;-1.204;2023-06-22T00:01:46;12.85;;;5.70;;
19406;SDS011;9839;53.364;-1.204;2023-06-22T00:04:12;9.05;;;5.13;;
19406;SDS011;9839;53.364;-1.204;2023-06-22T00:06:37;11.35;;;6.38;;
19406;SDS011;9839;53.364;-1.204;2023-06-22T00:09:03;9.93;;;5.75;;
19406;SDS011;9839;53.364;-1.204;2023-06-22T00:11:28;10.80;;;6.32;;
19406;SDS011;9839;53.364;-1.204;2023-06-22T00:13:54;9.20;;;5.43;;
19406;SDS011;9839;53.364;-1.204;2023-06-22T00:16:19;9.50;;;5.70;;
19406;SDS011;9839;53.364;-1.204;2023-06-22T00:18:45;8.20;;;5.32;;
19406;SDS011;9839;53.364;-1.204;2023-06-22T00:21:12;11.80;;;5.75;;
19406;SDS011;9839;53.364;-1.204;2023-06-22T00:23:38;12.27;;;5.45;;
19406;SDS011;9839;53.364;-1.204;2023-06-22T00:26:03;15.77;;;6.38;;
19406;SDS011;9839;53.364;-1.204;2023-06-22T00:28:29;15.60;;;6.20;;
19406;SDS011;9839;53.364;-1.204;2023-06-22T00:30:55;8.77;;;5.60;;
19406;SDS011;9839;53.364;-1.204;2023-06-22T00:33:21;10.05;;;5.82;;
19406;SDS011;9839;53.364;-1.204;2023-06-22T00:35:46;13.50;;;6.05;;
19406;SDS011;9839;53.364;-1.204;2023-06-22T00:38:11;12.82;;;7.03;;
19406;SDS011;9839;53.364;-1.204;2023-06-22T00:40:37;21.92;;;7.47;;
19406;SDS011;9839;53.364;-1.204;2023-06-22T00:43:03;12.43;;;6.60;;
19406;SDS011;9839;53.364;-1.204;2023-06-22T00:45:30;14.00;;;6.70;;
19406;SDS011;9839;53.364;-1.204;2023-06-22T00:47:58;16.02;;;7.20;;
19406;SDS011;9839;53.364;-1.204;2023-06-22T00:50:28;13.15;;;6.82;;
19406;SDS011;9839;53.364;-1.204;2023-06-22T00:52:58;12.05;;;6.68;;
19406;SDS011;9839;53.364;-1.204;2023-06-22T00:55:25;13.55;;;7.05;;
19406;SDS011;9839;53.364;-1.204;2023-06-22T00:57:51;12.80;;;6.75;;
19406;SDS011;9839;53.364;-1.204;2023-06-22T01:00:20;13.77;;;6.90;;
19406;SDS011;9839;53.364;-1.204;2023-06-22T01:02:49;13.93;;;7.07;;
19406;SDS011;9839;53.364;-1.204;2023-06-22T01:05:17;10.45;;;6.22;;
19406;SDS011;9839;53.364;-1.204;2023-06-22T01:12:58;12.27;;;7.18;;
19406;SDS011;9839;53.364;-1.204;2023-06-22T01:17:55;13.65;;;7.00;;
19406;SDS011;9839;53.364;-1.204;2023-06-22T01:20:22;9.45;;;5.82;;
19406;SDS011;9839;53.364;-1.204;2023-06-22T01:22:59;13.32;;;7.10;;
19406;SDS011;9839;53.364;-1.204;2023-06-22T01:25:53;15.13;;;6.43;;
19406;SDS011;9839;53.364;-1.204;2023-06-22T01:31:06;16.15;;;7.45;;
19406;SDS011;9839;53.364;-1.204;2023-06-22T01:33:35;15.45;;;7.45;;
19406;SDS011;9839;53.364;-1.204;2023-06-22T01:36:02;15.00;;;7.25;;
19406;SDS011;9839;53.364;-1.204;2023-06-22T01:38:28;16.40;;;7.88;;
19406;SDS011;9839;53.364;-1.204;2023-06-22T01:40:54;15.57;;;7.25;;
19406;SDS011;9839;53.364;-1.204;2023-06-22T01:43:21;15.68;;;8.38;;
19406;SDS011;9839;53.364;-1.204;2023-06-22T01:45:48;19.08;;;7.97;;
19406;SDS011;9839;53.364;-1.204;2023-06-22T01:48:14;16.70;;;7.80;;
19406;SDS011;9839;53.364;-1.204;2023-06-22T01:50:39;18.83;;;7.93;;
19406;SDS011;9839;53.364;-1.204;2023-06-22T01:53:05;20.17;;;8.15;;
19406;SDS011;9839;53.364;-1.204;2023-06-22T01:55:31;18.40;;;7.45;;
19406;SDS011;9839;53.364;-1.204;2023-06-22T01:57:57;15.95;;;7.57;;
19406;SDS011;9839;53.364;-1.204;2023-06-22T02:00:22;17.27;;;7.57;;
19406;SDS011;9839;53.364;-1.204;2023-06-22T02:02:57;16.75;;;7.28;;
19406;SDS011;9839;53.364;-1.204;2023-06-22T02:05:35;16.92;;;7.50;;
19406;SDS011;9839;53.364;-1.204;2023-06-22T02:08:09;16.77;;;7.53;;
19406;SDS011;9839;53.364;-1.204;2023-06-22T02:10:43;16.33;;;6.88;;
19406;SDS011;9839;53.364;-1.204;2023-06-22T02:13:09;14.25;;;7.43;;
19406;SDS011;9839;53.364;-1.204;2023-06-22T02:15:35;12.57;;;6.55;;
19406;SDS011;9839;53.364;-1.204;2023-06-22T02:18:01;14.15;;;7.18;;
19406;SDS011;9839;53.364;-1.204;2023-06-22T02:20:27;14.40;;;7.50;;
19406;SDS011;9839;53.364;-1.204;2023-06-22T02:22:52;12.85;;;6.32;;
19406;SDS011;9839;53.364;-1.204;2023-06-22T02:25:17;11.32;;;6.25;;
19406;SDS011;9839;53.364;-1.204;2023-06-22T02:27:44;14.65;;;6.75;;
19406;SDS011;9839;53.364;-1.204;2023-06-22T02:30:09;11.13;;;6.45;;
19406;SDS011;9839;53.364;-1.204;2023-06-22T02:32:35;13.50;;;6.82;;
19406;SDS011;9839;53.364;-1.204;2023-06-22T02:35:01;13.75;;;6.28;;
19406;SDS011;9839;53.364;-1.204;2023-06-22T02:37:30;11.00;;;5.68;;
19406;SDS011;9839;53.364;-1.204;2023-06-22T02:39:56;12.30;;;5.95;;
19406;SDS011;9839;53.364;-1.204;2023-06-22T02:42:21;13.73;;;6.10;;
19406;SDS011;9839;53.364;-1.204;2023-06-22T02:44:47;8.77;;;5.53;;
19406;SDS011;9839;53.364;-1.204;2023-06-22T02:47:12;10.25;;;5.07;;
19406;SDS011;9839;53.364;-1.204;2023-06-22T02:49:38;6.05;;;4.20;;
19406;SDS011;9839;53.364;-1.204;2023-06-22T02:52:03;11.55;;;5.57;;
19406;SDS011;9839;53.364;-1.204;2023-06-22T02:54:29;7.90;;;4.50;;
19406;SDS011;9839;53.364;-1.204;2023-06-22T02:56:54;10.95;;;6.05;;
19406;SDS011;9839;53.364;-1.204;2023-06-22T02:59:20;12.13;;;5.28;;
19406;SDS011;9839;53.364;-1.204;2023-06-22T03:01:51;8.52;;;5.30;;
19406;SDS011;9839;53.364;-1.204;2023-06-22T03:04:17;8.30;;;4.85;;
19406;SDS011;9839;53.364;-1.204;2023-06-22T03:06:43;8.70;;;4.53;;
19406;SDS011;9839;53.364;-1.204;2023-06-22T03:09:08;11.65;;;5.07;;
19406;SDS011;9839;53.364;-1.204;2023-06-22T03:11:34;7.22;;;3.95;;
19406;SDS011;9839;53.364;-1.204;2023-06-22T03:13:59;7.57;;;4.60;;
19406;SDS011;9839;53.364;-1.204;2023-06-22T03:16:25;10.00;;;4.97;;
19406;SDS011;9839;53.364;-1.204;2023-06-22T03:18:51;8.93;;;4.75;;
19406;SDS011;9839;53.364;-1.204;2023-06-22T03:21:18;9.75;;;4.55;;
19406;SDS011;9839;53.364;-1.204;2023-06-22T03:23:44;7.47;;;4.35;;
19406;SDS011;9839;53.364;-1.204;2023-06-22T03:26:10;5.57;;;3.88;;
19406;SDS011;9839;53.364;-1.204;2023-06-22T03:28:35;7.75;;;4.07;;
19406;SDS011;9839;53.364;-1.204;2023-06-22T03:31:01;6.45;;;4.15;;
19406;SDS011;9839;53.364;-1.204;2023-06-22T03:33:26;9.68;;;4.55;;
19406;SDS011;9839;53.364;-1.204;2023-06-22T03:35:52;12.18;;;4.88;;
19406;SDS011;9839;53.364;-1.204;2023-06-22T03:38:18;7.82;;;4.90;;
19406;SDS011;9839;53.364;-1.204;2023-06-22T03:40:44;8.23;;;4.90;;
19406;SDS011;9839;53.364;-1.204;2023-06-22T03:43:10;12.48;;;5.03;;
19406;SDS011;9839;53.364;-1.204;2023-06-22T03:45:35;10.18;;;4.90;;
19406;SDS011;9839;53.364;-1.204;2023-06-22T03:48:01;8.05;;;5.18;;
19406;SDS011;9839;53.364;-1.204;2023-06-22T03:50:26;9.48;;;5.13;;
19406;SDS011;9839;53.364;-1.204;2023-06-22T03:52:52;13.30;;;4.68;;
19406;SDS011;9839;53.364;-1.204;2023-06-22T03:55:19;8.13;;;5.05;;
19406;SDS011;9839;53.364;-1.204;2023-06-22T03:57:44;14.43;;;5.65;;
19406;SDS011;9839;53.364;-1.204;2023-06-22T04:00:10;7.97;;;4.30;;
19406;SDS011;9839;53.364;-1.204;2023-06-22T04:02:36;7.18;;;4.40;;
19406;SDS011;9839;53.364;-1.204;2023-06-22T04:05:02;11.63;;;5.00;;
19406;SDS011;9839;53.364;-1.204;2023-06-22T04:07:27;8.82;;;5.00;;
19406;SDS011;9839;53.364;-1.204;2023-06-22T04:09:53;7.85;;;4.20;;
19406;SDS011;9839;53.364;-1.204;2023-06-22T04:12:18;11.60;;;4.80;;
19406;SDS011;9839;53.364;-1.204;2023-06-22T04:14:44;8.18;;;5.10;;
19406;SDS011;9839;53.364;-1.204;2023-06-22T04:17:09;9.30;;;4.97;;
19406;SDS011;9839;53.364;-1.204;2023-06-22T04:19:34;7.57;;;4.70;;
19406;SDS011;9839;53.364;-1.204;2023-06-22T04:22:00;9.13;;;5.10;;
19406;SDS011;9839;53.364;-1.204;2023-06-22T04:24:25;7.43;;;4.40;;
19406;SDS011;9839;53.364;-1.204;2023-06-22T04:26:51;7.43;;;4.65;;
19406;SDS011;9839;53.364;-1.204;2023-06-22T04:29:19;11.02;;;4.38;;
19406;SDS011;9839;53.364;-1.204;2023-06-22T04:31:45;9.20;;;4.72;;
19406;SDS011;9839;53.364;-1.204;2023-06-22T04:34:16;8.85;;;5.05;;
19406;SDS011;9839;53.364;-1.204;2023-06-22T04:36:42;11.60;;;4.93;;
19406;SDS011;9839;53.364;-1.204;2023-06-22T04:39:09;8.95;;;5.35;;
19406;SDS011;9839;53.364;-1.204;2023-06-22T04:41:35;8.18;;;4.70;;
19406;SDS011;9839;53.364;-1.204;2023-06-22T04:44:11;7.72;;;4.20;;
19406;SDS011;9839;53.364;-1.204;2023-06-22T04:46:48;6.57;;;4.15;;
19406;SDS011;9839;53.364;-1.204;2023-06-22T04:49:19;9.77;;;4.70;;
19406;SDS011;9839;53.364;-1.204;2023-06-22T04:51:45;10.05;;;4.00;;
19406;SDS011;9839;53.364;-1.204;2023-06-22T04:54:10;8.27;;;4.18;;
19406;SDS011;9839;53.364;-1.204;2023-06-22T04:56:36;7.03;;;3.83;;
19406;SDS011;9839;53.364;-1.204;2023-06-22T04:59:02;7.18;;;4.07;;
19406;SDS011;9839;53.364;-1.204;2023-06-22T05:01:28;7.85;;;3.70;;
19406;SDS011;9839;53.364;-1.204;2023-06-22T05:03:56;6.93;;;3.75;;
19406;SDS011;9839;53.364;-1.204;2023-06-22T05:06:22;9.27;;;4.10;;
19406;SDS011;9839;53.364;-1.204;2023-06-22T05:08:54;8.57;;;3.80;;
19406;SDS011;9839;53.364;-1.204;2023-06-22T05:11:23;11.35;;;4.00;;
19406;SDS011;9839;53.364;-1.204;2023-06-22T05:13:52;7.60;;;4.18;;
19406;SDS011;9839;53.364;-1.204;2023-06-22T05:16:18;7.18;;;3.63;;
19406;SDS011;9839;53.364;-1.204;2023-06-22T05:18:49;4.70;;;3.35;;
19406;SDS011;9839;53.364;-1.204;2023-06-22T05:21:18;7.60;;;3.67;;
19406;SDS011;9839;53.364;-1.204;2023-06-22T05:23:45;6.65;;;3.90;;
19406;SDS011;9839;53.364;-1.204;2023-06-22T05:26:10;7.43;;;3.92;;
19406;SDS011;9839;53.364;-1.204;2023-06-22T05:28:36;9.23;;;3.65;;
19406;SDS011;9839;53.364;-1.204;2023-06-22T05:31:01;6.40;;;3.53;;
19406;SDS011;9839;53.364;-1.204;2023-06-22T05:33:27;5.82;;;3.33;;
19406;SDS011;9839;53.364;-1.204;2023-06-22T05:35:52;7.20;;;3.65;;
19406;SDS011;9839;53.364;-1.204;2023-06-22T05:38:17;6.13;;;3.58;;
19406;SDS011;9839;53.364;-1.204;2023-06-22T05:40:43;6.80;;;3.60;;
19406;SDS011;9839;53.364;-1.204;2023-06-22T05:43:08;6.30;;;3.50;;
19406;SDS011;9839;53.364;-1.204;2023-06-22T05:45:34;9.23;;;4.07;;
19406;SDS011;9839;53.364;-1.204;2023-06-22T05:47:59;4.32;;;3.13;;
19406;SDS011;9839;53.364;-1.204;2023-06-22T05:50:24;6.18;;;3.80;;
19406;SDS011;9839;53.364;-1.204;2023-06-22T05:52:50;6.18;;;3.97;;
19406;SDS011;9839;53.364;-1.204;2023-06-22T05:55:15;7.60;;;4.03;;
19406;SDS011;9839;53.364;-1.204;2023-06-22T05:57:43;7.50;;;3.75;;
19406;SDS011;9839;53.364;-1.204;2023-06-22T06:00:09;6.65;;;3.35;;
19406;SDS011;9839;53.364;-1.204;2023-06-22T06:02:36;5.70;;;3.40;;
19406;SDS011;9839;53.364;-1.204;2023-06-22T06:05:02;7.50;;;3.50;;
19406;SDS011;9839;53.364;-1.204;2023-06-22T06:07:28;4.82;;;3.28;;
19406;SDS011;9839;53.364;-1.204;2023-06-22T06:09:54;5.15;;;3.75;;
19406;SDS011;9839;53.364;-1.204;2023-06-22T06:12:20;4.25;;;3.30;;
19406;SDS011;9839;53.364;-1.204;2023-06-22T06:14:45;5.75;;;3.22;;
19406;SDS011;9839;53.364;-1.204;2023-06-22T06:17:12;5.00;;;3.17;;
19406;SDS011;9839;53.364;-1.204;2023-06-22T06:19:38;4.68;;;3.00;;
19406;SDS011;9839;53.364;-1.204;2023-06-22T06:22:03;5.28;;;3.08;;
19406;SDS011;9839;53.364;-1.204;2023-06-22T06:24:29;5.28;;;3.17;;
19406;SDS011;9839;53.364;-1.204;2023-06-22T06:26:54;7.10;;;3.20;;
19406;SDS011;9839;53.364;-1.204;2023-06-22T06:29:20;7.25;;;3.20;;
19406;SDS011;9839;53.364;-1.204;2023-06-22T06:31:45;6.22;;;3.13;;
19406;SDS011;9839;53.364;-1.204;2023-06-22T06:34:11;7.43;;;3.30;;
19406;SDS011;9839;53.364;-1.204;2023-06-22T06:36:36;8.40;;;3.63;;
19406;SDS011;9839;53.364;-1.204;2023-06-22T06:39:02;6.03;;;3.10;;
19406;SDS011;9839;53.364;-1.204;2023-06-22T06:41:29;9.55;;;3.38;;
19406;SDS011;9839;53.364;-1.204;2023-06-22T06:43:54;10.43;;;3.60;;
19406;SDS011;9839;53.364;-1.204;2023-06-22T06:46:22;5.85;;;3.85;;
19406;SDS011;9839;53.364;-1.204;2023-06-22T06:48:48;7.18;;;3.90;;
19406;SDS011;9839;53.364;-1.204;2023-06-22T06:51:13;6.15;;;3.75;;
19406;SDS011;9839;53.364;-1.204;2023-06-22T06:53:39;8.93;;;4.40;;
19406;SDS011;9839;53.364;-1.204;2023-06-22T06:56:04;7.53;;;3.97;;
19406;SDS011;9839;53.364;-1.204;2023-06-22T06:58:30;8.80;;;4.45;;
19406;SDS011;9839;53.364;-1.204;2023-06-22T07:00:56;9.80;;;5.03;;
19406;SDS011;9839;53.364;-1.204;2023-06-22T07:03:21;8.35;;;4.15;;
19406;SDS011;9839;53.364;-1.204;2023-06-22T07:05:47;7.90;;;4.90;;
19406;SDS011;9839;53.364;-1.204;2023-06-22T07:08:13;9.90;;;4.53;;
19406;SDS011;9839;53.364;-1.204;2023-06-22T07:10:38;8.45;;;4.45;;
19406;SDS011;9839;53.364;-1.204;2023-06-22T07:13:03;7.88;;;3.45;;
19406;SDS011;9839;53.364;-1.204;2023-06-22T07:15:29;6.10;;;3.50;;
19406;SDS011;9839;53.364;-1.204;2023-06-22T07:17:54;5.47;;;3.08;;
19406;SDS011;9839;53.364;-1.204;2023-06-22T07:20:20;6.43;;;3.55;;
19406;SDS011;9839;53.364;-1.204;2023-06-22T07:22:45;5.97;;;3.40;;
19406;SDS011;9839;53.364;-1.204;2023-06-22T07:25:11;5.88;;;3.53;;
19406;SDS011;9839;53.364;-1.204;2023-06-22T07:27:39;6.57;;;3.50;;
19406;SDS011;9839;53.364;-1.204;2023-06-22T07:30:09;5.63;;;3.88;;
19406;SDS011;9839;53.364;-1.204;2023-06-22T07:32:35;4.82;;;3.25;;
19406;SDS011;9839;53.364;-1.204;2023-06-22T07:35:01;6.15;;;3.30;;
19406;SDS011;9839;53.364;-1.204;2023-06-22T07:37:27;5.82;;;3.40;;
19406;SDS011;9839;53.364;-1.204;2023-06-22T07:39:54;6.05;;;3.28;;
19406;SDS011;9839;53.364;-1.204;2023-06-22T07:42:23;6.13;;;3.35;;
19406;SDS011;9839;53.364;-1.204;2023-06-22T07:44:51;4.45;;;3.38;;
19406;SDS011;9839;53.364;-1.204;2023-06-22T07:47:17;6.13;;;3.50;;
19406;SDS011;9839;53.364;-1.204;2023-06-22T07:49:44;9.10;;;3.47;;
19406;SDS011;9839;53.364;-1.204;2023-06-22T07:52:10;7.63;;;3.15;;
19406;SDS011;9839;53.364;-1.204;2023-06-22T07:54:36;6.47;;;3.45;;
19406;SDS011;9839;53.364;-1.204;2023-06-22T07:57:01;4.47;;;2.92;;
19406;SDS011;9839;53.364;-1.204;2023-06-22T07:59:27;4.80;;;3.15;;
19406;SDS011;9839;53.364;-1.204;2023-06-22T08:01:52;5.68;;;3.63;;
19406;SDS011;9839;53.364;-1.204;2023-06-22T08:04:18;6.38;;;2.92;;
19406;SDS011;9839;53.364;-1.204;2023-06-22T08:06:43;6.88;;;3.58;;
19406;SDS011;9839;53.364;-1.204;2023-06-22T08:09:08;10.75;;;3.72;;
19406;SDS011;9839;53.364;-1.204;2023-06-22T08:11:34;5.80;;;3.63;;
19406;SDS011;9839;53.364;-1.204;2023-06-22T08:13:59;7.30;;;3.75;;
19406;SDS011;9839;53.364;-1.204;2023-06-22T08:16:25;5.45;;;3.70;;
19406;SDS011;9839;53.364;-1.204;2023-06-22T08:18:50;11.18;;;4.13;;
19406;SDS011;9839;53.364;-1.204;2023-06-22T08:21:16;7.00;;;3.65;;
19406;SDS011;9839;53.364;-1.204;2023-06-22T08:23:42;9.57;;;4.47;;
19406;SDS011;9839;53.364;-1.204;2023-06-22T08:26:07;9.10;;;4.55;;
19406;SDS011;9839;53.364;-1.204;2023-06-22T08:28:32;9.23;;;4.00;;
19406;SDS011;9839;53.364;-1.204;2023-06-22T08:30:59;9.13;;;4.57;;
19406;SDS011;9839;53.364;-1.204;2023-06-22T08:33:25;5.45;;;3.55;;
19406;SDS011;9839;53.364;-1.204;2023-06-22T08:35:53;4.70;;;3.80;;
19406;SDS011;9839;53.364;-1.204;2023-06-22T08:38:23;6.32;;;3.58;;
19406;SDS011;9839;53.364;-1.204;2023-06-22T08:40:48;5.95;;;3.70;;
19406;SDS011;9839;53.364;-1.204;2023-06-22T08:43:14;8.05;;;3.60;;
19406;SDS011;9839;53.364;-1.204;2023-06-22T08:45:39;6.97;;;4.20;;
19406;SDS011;9839;53.364;-1.204;2023-06-22T08:48:05;9.85;;;4.28;;
19406;SDS011;9839;53.364;-1.204;2023-06-22T08:50:30;7.75;;;3.55;;
19406;SDS011;9839;53.364;-1.204;2023-06-22T08:52:55;7.07;;;3.83;;
19406;SDS011;9839;53.364;-1.204;2023-06-22T08:55:21;5.38;;;3.72;;
19406;SDS011;9839;53.364;-1.204;2023-06-22T08:57:46;7.32;;;3.90;;
19406;SDS011;9839;53.364;-1.204;2023-06-22T09:00:12;5.45;;;3.55;;
19406;SDS011;9839;53.364;-1.204;2023-06-22T09:02:46;9.45;;;3.78;;
19406;SDS011;9839;53.364;-1.204;2023-06-22T09:05:12;7.15;;;3.80;;
19406;SDS011;9839;53.364;-1.204;2023-06-22T09:07:38;11.30;;;3.95;;
19406;SDS011;9839;53.364;-1.204;2023-06-22T09:10:04;6.88;;;4.10;;
19406;SDS011;9839;53.364;-1.204;2023-06-22T09:12:30;6.28;;;3.25;;
19406;SDS011;9839;53.364;-1.204;2023-06-22T09:14:57;6.15;;;3.47;;
19406;SDS011;9839;53.364;-1.204;2023-06-22T09:17:25;9.00;;;3.67;;
19406;SDS011;9839;53.364;-1.204;2023-06-22T09:19:50;5.65;;;3.50;;
19406;SDS011;9839;53.364;-1.204;2023-06-22T09:22:16;4.82;;;3.17;;
19406;SDS011;9839;53.364;-1.204;2023-06-22T09:24:41;3.95;;;3.28;;
19406;SDS011;9839;53.364;-1.204;2023-06-22T09:27:07;7.43;;;3.50;;
19406;SDS011;9839;53.364;-1.204;2023-06-22T09:29:32;6.50;;;3.42;;
19406;SDS011;9839;53.364;-1.204;2023-06-22T09:32:01;5.13;;;3.67;;
19406;SDS011;9839;53.364;-1.204;2023-06-22T09:34:26;5.95;;;3.78;;
19406;SDS011;9839;53.364;-1.204;2023-06-22T09:36:52;5.55;;;3.85;;
19406;SDS011;9839;53.364;-1.204;2023-06-22T09:39:18;10.48;;;4.30;;
19406;SDS011;9839;53.364;-1.204;2023-06-22T09:41:43;5.60;;;3.47;;
19406;SDS011;9839;53.364;-1.204;2023-06-22T09:44:09;7.90;;;4.03;;
19406;SDS011;9839;53.364;-1.204;2023-06-22T09:46:34;5.75;;;3.90;;
19406;SDS011;9839;53.364;-1.204;2023-06-22T09:49:00;8.73;;;4.00;;
19406;SDS011;9839;53.364;-1.204;2023-06-22T09:51:25;4.97;;;3.28;;
19406;SDS011;9839;53.364;-1.204;2023-06-22T09:53:51;6.00;;;3.70;;
19406;SDS011;9839;53.364;-1.204;2023-06-22T09:56:18;10.88;;;3.72;;
19406;SDS011;9839;53.364;-1.204;2023-06-22T09:58:44;5.65;;;3.80;;
19406;SDS011;9839;53.364;-1.204;2023-06-22T10:01:11;6.55;;;3.80;;
19406;SDS011;9839;53.364;-1.204;2023-06-22T10:03:36;6.93;;;3.25;;
19406;SDS011;9839;53.364;-1.204;2023-06-22T10:06:02;7.75;;;3.88;;
19406;SDS011;9839;53.364;-1.204;2023-06-22T10:08:28;7.22;;;4.18;;
19406;SDS011;9839;53.364;-1.204;2023-06-22T10:10:54;5.25;;;4.05;;
19406;SDS011;9839;53.364;-1.204;2023-06-22T10:13:19;5.88;;;3.55;;
19406;SDS011;9839;53.364;-1.204;2023-06-22T10:15:45;7.30;;;3.83;;
19406;SDS011;9839;53.364;-1.204;2023-06-22T10:18:15;5.85;;;3.65;;
19406;SDS011;9839;53.364;-1.204;2023-06-22T10:20:41;9.27;;;3.92;;
19406;SDS011;9839;53.364;-1.204;2023-06-22T10:23:06;8.38;;;4.32;;
19406;SDS011;9839;53.364;-1.204;2023-06-22T10:25:32;8.27;;;4.75;;
19406;SDS011;9839;53.364;-1.204;2023-06-22T10:27:57;6.07;;;3.80;;
19406;SDS011;9839;53.364;-1.204;2023-06-22T10:30:23;7.95;;;4.38;;
19406;SDS011;9839;53.364;-1.204;2023-06-22T10:32:48;4.47;;;3.40;;
19406;SDS011;9839;53.364;-1.204;2023-06-22T10:35:14;8.30;;;4.20;;
19406;SDS011;9839;53.364;-1.204;2023-06-22T10:37:41;5.38;;;3.78;;
19406;SDS011;9839;53.364;-1.204;2023-06-22T10:40:13;25.88;;;4.20;;
19406;SDS011;9839;53.364;-1.204;2023-06-22T10:42:40;5.15;;;3.63;;
19406;SDS011;9839;53.364;-1.204;2023-06-22T10:45:06;9.85;;;4.30;;
19406;SDS011;9839;53.364;-1.204;2023-06-22T10:47:32;7.05;;;3.60;;
19406;SDS011;9839;53.364;-1.204;2023-06-22T10:49:57;5.95;;;4.00;;
19406;SDS011;9839;53.364;-1.204;2023-06-22T10:52:23;6.55;;;4.30;;
19406;SDS011;9839;53.364;-1.204;2023-06-22T10:54:48;6.43;;;3.88;;
19406;SDS011;9839;53.364;-1.204;2023-06-22T10:57:13;6.50;;;4.35;;
19406;SDS011;9839;53.364;-1.204;2023-06-22T10:59:39;9.23;;;4.18;;
19406;SDS011;9839;53.364;-1.204;2023-06-22T11:02:04;7.38;;;4.45;;
19406;SDS011;9839;53.364;-1.204;2023-06-22T11:04:30;11.60;;;4.82;;
19406;SDS011;9839;53.364;-1.204;2023-06-22T11:06:56;10.23;;;4.50;;
19406;SDS011;9839;53.364;-1.204;2023-06-22T11:09:21;7.35;;;4.32;;
19406;SDS011;9839;53.364;-1.204;2023-06-22T11:11:47;9.50;;;4.35;;
19406;SDS011;9839;53.364;-1.204;2023-06-22T11:14:13;10.10;;;4.10;;
19406;SDS011;9839;53.364;-1.204;2023-06-22T11:16:39;6.57;;;4.30;;
19406;SDS011;9839;53.364;-1.204;2023-06-22T11:19:04;8.90;;;3.85;;
19406;SDS011;9839;53.364;-1.204;2023-06-22T11:21:30;6.82;;;4.93;;
19406;SDS011;9839;53.364;-1.204;2023-06-22T11:23:56;8.63;;;3.83;;
19406;SDS011;9839;53.364;-1.204;2023-06-22T11:26:22;8.18;;;4.85;;
19406;SDS011;9839;53.364;-1.204;2023-06-22T11:28:47;8.30;;;4.05;;
19406;SDS011;9839;53.364;-1.204;2023-06-22T11:31:13;10.00;;;4.60;;
19406;SDS011;9839;53.364;-1.204;2023-06-22T11:33:39;8.23;;;3.67;;
19406;SDS011;9839;53.364;-1.204;2023-06-22T11:36:04;6.78;;;3.60;;
19406;SDS011;9839;53.364;-1.204;2023-06-22T11:38:30;6.53;;;3.92;;
19406;SDS011;9839;53.364;-1.204;2023-06-22T11:40:57;8.15;;;3.20;;
19406;SDS011;9839;53.364;-1.204;2023-06-22T11:43:23;4.45;;;3.00;;
19406;SDS011;9839;53.364;-1.204;2023-06-22T11:45:49;4.20;;;3.17;;
19406;SDS011;9839;53.364;-1.204;2023-06-22T11:48:14;7.90;;;2.78;;
19406;SDS011;9839;53.364;-1.204;2023-06-22T11:50:40;7.72;;;3.50;;
19406;SDS011;9839;53.364;-1.204;2023-06-22T11:53:05;6.68;;;3.58;;
19406;SDS011;9839;53.364;-1.204;2023-06-22T11:55:31;5.90;;;3.80;;
19406;SDS011;9839;53.364;-1.204;2023-06-22T11:57:57;6.50;;;3.80;;
19406;SDS011;9839;53.364;-1.204;2023-06-22T12:00:28;5.78;;;3.70;;
19406;SDS011;9839;53.364;-1.204;2023-06-22T12:02:54;6.93;;;3.58;;
19406;SDS011;9839;53.364;-1.204;2023-06-22T12:05:21;6.15;;;3.70;;
19406;SDS011;9839;53.364;-1.204;2023-06-22T12:07:47;6.63;;;4.05;;
19406;SDS011;9839;53.364;-1.204;2023-06-22T12:10:13;7.97;;;3.70;;
19406;SDS011;9839;53.364;-1.204;2023-06-22T12:12:38;5.63;;;3.45;;
19406;SDS011;9839;53.364;-1.204;2023-06-22T12:15:04;4.85;;;3.95;;
19406;SDS011;9839;53.364;-1.204;2023-06-22T12:17:30;5.68;;;3.58;;
19406;SDS011;9839;53.364;-1.204;2023-06-22T12:19:56;6.18;;;3.80;;
19406;SDS011;9839;53.364;-1.204;2023-06-22T12:22:21;6.35;;;3.70;;
19406;SDS011;9839;53.364;-1.204;2023-06-22T12:24:47;6.28;;;3.10;;
19406;SDS011;9839;53.364;-1.204;2023-06-22T12:27:12;5.70;;;3.67;;
19406;SDS011;9839;53.364;-1.204;2023-06-22T12:29:41;5.75;;;3.53;;
19406;SDS011;9839;53.364;-1.204;2023-06-22T12:32:06;5.68;;;3.78;;
19406;SDS011;9839;53.364;-1.204;2023-06-22T12:34:32;8.35;;;4.53;;
19406;SDS011;9839;53.364;-1.204;2023-06-22T12:36:58;5.00;;;3.40;;
19406;SDS011;9839;53.364;-1.204;2023-06-22T12:39:23;8.95;;;3.88;;
19406;SDS011;9839;53.364;-1.204;2023-06-22T12:41:48;5.75;;;4.30;;
19406;SDS011;9839;53.364;-1.204;2023-06-22T12:44:14;5.18;;;3.40;;
19406;SDS011;9839;53.364;-1.204;2023-06-22T12:46:39;5.70;;;3.20;;
19406;SDS011;9839;53.364;-1.204;2023-06-22T12:49:05;5.90;;;3.70;;
19406;SDS011;9839;53.364;-1.204;2023-06-22T12:51:30;4.00;;;3.00;;
19406;SDS011;9839;53.364;-1.204;2023-06-22T12:53:56;5.32;;;3.70;;
19406;SDS011;9839;53.364;-1.204;2023-06-22T12:56:22;7.43;;;3.90;;
19406;SDS011;9839;53.364;-1.204;2023-06-22T12:58:47;11.02;;;4.28;;
19406;SDS011;9839;53.364;-1.204;2023-06-22T13:01:13;5.80;;;3.22;;
19406;SDS011;9839;53.364;-1.204;2023-06-22T13:03:38;9.88;;;4.07;;
19406;SDS011;9839;53.364;-1.204;2023-06-22T13:06:04;7.47;;;4.10;;
19406;SDS011;9839;53.364;-1.204;2023-06-22T13:08:30;10.68;;;3.55;;
19406;SDS011;9839;53.364;-1.204;2023-06-22T13:10:55;6.05;;;3.30;;
19406;SDS011;9839;53.364;-1.204;2023-06-22T13:13:23;6.22;;;3.75;;
19406;SDS011;9839;53.364;-1.204;2023-06-22T13:15:50;5.55;;;3.70;;
19406;SDS011;9839;53.364;-1.204;2023-06-22T13:18:17;6.65;;;3.45;;
19406;SDS011;9839;53.364;-1.204;2023-06-22T13:20:43;8.82;;;3.53;;
19406;SDS011;9839;53.364;-1.204;2023-06-22T13:23:10;10.48;;;3.70;;
19406;SDS011;9839;53.364;-1.204;2023-06-22T13:25:36;7.30;;;3.80;;
19406;SDS011;9839;53.364;-1.204;2023-06-22T13:28:01;5.97;;;3.10;;
19406;SDS011;9839;53.364;-1.204;2023-06-22T13:30:27;6.18;;;4.07;;
19406;SDS011;9839;53.364;-1.204;2023-06-22T13:32:52;6.50;;;3.90;;
19406;SDS011;9839;53.364;-1.204;2023-06-22T13:35:17;5.78;;;3.60;;
19406;SDS011;9839;53.364;-1.204;2023-06-22T13:37:43;5.07;;;3.10;;
19406;SDS011;9839;53.364;-1.204;2023-06-22T13:40:09;7.70;;;3.88;;
19406;SDS011;9839;53.364;-1.204;2023-06-22T13:42:34;6.68;;;3.22;;
19406;SDS011;9839;53.364;-1.204;2023-06-22T13:45:00;4.55;;;3.67;;
19406;SDS011;9839;53.364;-1.204;2023-06-22T13:47:26;4.82;;;3.60;;
19406;SDS011;9839;53.364;-1.204;2023-06-22T13:49:51;8.05;;;3.90;;
19406;SDS011;9839;53.364;-1.204;2023-06-22T13:52:16;9.02;;;3.88;;
19406;SDS011;9839;53.364;-1.204;2023-06-22T13:54:42;4.93;;;3.85;;
19406;SDS011;9839;53.364;-1.204;2023-06-22T13:57:07;4.72;;;3.65;;
19406;SDS011;9839;53.364;-1.204;2023-06-22T13:59:33;9.02;;;5.07;;
19406;SDS011;9839;53.364;-1.204;2023-06-22T14:01:58;7.20;;;4.38;;
19406;SDS011;9839;53.364;-1.204;2023-06-22T14:04:23;7.75;;;4.63;;
19406;SDS011;9839;53.364;-1.204;2023-06-22T14:06:49;9.45;;;4.95;;
19406;SDS011;9839;53.364;-1.204;2023-06-22T14:09:15;5.85;;;4.13;;
19406;SDS011;9839;53.364;-1.204;2023-06-22T14:11:40;6.30;;;3.97;;
19406;SDS011;9839;53.364;-1.204;2023-06-22T14:14:05;7.25;;;4.00;;
19406;SDS011;9839;53.364;-1.204;2023-06-22T14:16:31;8.75;;;4.40;;
19406;SDS011;9839;53.364;-1.204;2023-06-22T14:18:56;7.47;;;3.92;;
19406;SDS011;9839;53.364;-1.204;2023-06-22T14:21:22;6.25;;;3.75;;
19406;SDS011;9839;53.364;-1.204;2023-06-22T14:23:47;6.93;;;3.78;;
19406;SDS011;9839;53.364;-1.204;2023-06-22T14:26:15;6.95;;;3.97;;
19406;SDS011;9839;53.364;-1.204;2023-06-22T14:28:43;6.18;;;3.80;;
19406;SDS011;9839;53.364;-1.204;2023-06-22T14:31:13;10.50;;;4.50;;
19406;SDS011;9839;53.364;-1.204;2023-06-22T14:33:44;7.43;;;4.10;;
19406;SDS011;9839;53.364;-1.204;2023-06-22T14:36:11;7.50;;;4.22;;
19406;SDS011;9839;53.364;-1.204;2023-06-22T14:38:37;6.13;;;4.25;;
19406;SDS011;9839;53.364;-1.204;2023-06-22T14:41:04;6.50;;;4.50;;
19406;SDS011;9839;53.364;-1.204;2023-06-22T14:43:30;10.25;;;4.00;;
19406;SDS011;9839;53.364;-1.204;2023-06-22T14:45:57;5.57;;;4.10;;
19406;SDS011;9839;53.364;-1.204;2023-06-22T14:48:23;7.70;;;4.55;;
19406;SDS011;9839;53.364;-1.204;2023-06-22T14:50:49;8.50;;;3.85;;